sensor_id;sensor_type;location;lat;lon;timestamp;temperature;humidity
23801;DHT22;12081;48.614;10.226;2022-10-16T00:02:24;13.00;99.90
23801;DHT22;12081;48.614;10.226;2022-10-16T00:05:09;12.90;99.90
23801;DHT22;12081;48.614;10.226;2022-10-16T00:07:53;12.90;99.90
23801;DHT22;12081;48.614;10.226;2022-10-16T00:10:37;12.90;99.90
23801;DHT22;12081;48.614;10.226;2022-10-16T00:13:21;12.80;99.90
23801;DHT22;12081;48.614;10.226;2022-10-16T00:16:05;12.80;99.90
23801;DHT22;12081;48.614;10.226;2022-10-16T00:18:50;12.90;99.90
23801;DHT22;12081;48.614;10.226;2022-10-16T00:21:34;12.80;99.90
23801;DHT22;12081;48.614;10.226;2022-10-16T00:24:18;13.40;99.90
23801;DHT22;12081;48.614;10.226;2022-10-16T00:27:02;12.90;99.90
23801;DHT22;12081;48.614;10.226;2022-10-16T00:29:50;12.80;99.90
23801;DHT22;12081;48.614;10.226;2022-10-16T00:32:35;12.80;99.90
23801;DHT22;12081;48.614;10.226;2022-10-16T00:35:19;12.70;99.90
23801;DHT22;12081;48.614;10.226;2022-10-16T00:38:03;12.60;99.90
23801;DHT22;12081;48.614;10.226;2022-10-16T00:40:47;12.60;99.90
23801;DHT22;12081;48.614;10.226;2022-10-16T00:43:51;12.50;99.90
23801;DHT22;12081;48.614;10.226;2022-10-16T00:51:55;12.40;99.90
23801;DHT22;12081;48.614;10.226;2022-10-16T00:54:43;12.20;99.90
23801;DHT22;12081;48.614;10.226;2022-10-16T00:57:28;11.40;99.90
23801;DHT22;12081;48.614;10.226;2022-10-16T01:00:18;10.90;99.90
23801;DHT22;12081;48.614;10.226;2022-10-16T01:03:33;12.10;99.90
23801;DHT22;12081;48.614;10.226;2022-10-16T01:06:41;11.60;99.90
23801;DHT22;12081;48.614;10.226;2022-10-16T01:27:36;11.90;99.90
23801;DHT22;12081;48.614;10.226;2022-10-16T01:33:34;11.80;99.90
23801;DHT22;12081;48.614;10.226;2022-10-16T01:36:25;9.80;99.90
23801;DHT22;12081;48.614;10.226;2022-10-16T01:39:13;12.50;99.90
23801;DHT22;12081;48.614;10.226;2022-10-16T01:45:40;10.50;99.90
23801;DHT22;12081;48.614;10.226;2022-10-16T01:48:26;13.40;99.90
23801;DHT22;12081;48.614;10.226;2022-10-16T01:51:14;11.40;99.90
23801;DHT22;12081;48.614;10.226;2022-10-16T01:54:00;11.60;99.90
23801;DHT22;12081;48.614;10.226;2022-10-16T01:56:53;10.00;99.90
23801;DHT22;12081;48.614;10.226;2022-10-16T01:59:43;11.20;99.90
23801;DHT22;12081;48.614;10.226;2022-10-16T02:02:30;9.50;99.90
23801;DHT22;12081;48.614;10.226;2022-10-16T02:05:32;12.30;99.90
23801;DHT22;12081;48.614;10.226;2022-10-16T02:08:19;11.70;99.90
23801;DHT22;12081;48.614;10.226;2022-10-16T02:11:04;11.40;99.90
23801;DHT22;12081;48.614;10.226;2022-10-16T02:14:00;11.50;99.90
23801;DHT22;12081;48.614;10.226;2022-10-16T02:16:46;13.20;99.90
23801;DHT22;12081;48.614;10.226;2022-10-16T02:19:31;11.50;99.90
23801;DHT22;12081;48.614;10.226;2022-10-16T02:22:19;11.60;99.90
23801;DHT22;12081;48.614;10.226;2022-10-16T02:25:11;11.90;99.90
23801;DHT22;12081;48.614;10.226;2022-10-16T02:27:57;11.40;99.90
23801;DHT22;12081;48.614;10.226;2022-10-16T02:30:57;10.70;99.90
23801;DHT22;12081;48.614;10.226;2022-10-16T02:33:43;11.40;99.90
23801;DHT22;12081;48.614;10.226;2022-10-16T02:36:29;10.10;99.90
23801;DHT22;12081;48.614;10.226;2022-10-16T02:39:14;11.40;99.90
23801;DHT22;12081;48.614;10.226;2022-10-16T02:42:00;11.50;99.90
23801;DHT22;12081;48.614;10.226;2022-10-16T02:44:45;12.60;99.90
23801;DHT22;12081;48.614;10.226;2022-10-16T02:47:30;11.50;99.90
23801;DHT22;12081;48.614;10.226;2022-10-16T02:50:14;11.50;99.90
23801;DHT22;12081;48.614;10.226;2022-10-16T02:53:02;13.20;99.90
23801;DHT22;12081;48.614;10.226;2022-10-16T02:55:46;11.70;99.90
23801;DHT22;12081;48.614;10.226;2022-10-16T02:58:30;12.40;99.90
23801;DHT22;12081;48.614;10.226;2022-10-16T03:01:14;13.30;99.90
23801;DHT22;12081;48.614;10.226;2022-10-16T03:04:00;11.60;99.90
23801;DHT22;12081;48.614;10.226;2022-10-16T03:06:45;10.20;99.90
23801;DHT22;12081;48.614;10.226;2022-10-16T03:09:29;11.90;99.90
23801;DHT22;12081;48.614;10.226;2022-10-16T03:12:14;10.20;99.90
23801;DHT22;12081;48.614;10.226;2022-10-16T03:14:59;11.60;99.90
23801;DHT22;12081;48.614;10.226;2022-10-16T03:17:44;11.60;99.90
23801;DHT22;12081;48.614;10.226;2022-10-16T03:20:29;13.70;99.90
23801;DHT22;12081;48.614;10.226;2022-10-16T03:23:13;11.60;99.90
23801;DHT22;12081;48.614;10.226;2022-10-16T03:26:01;11.50;99.90
23801;DHT22;12081;48.614;10.226;2022-10-16T03:28:45;11.60;99.90
23801;DHT22;12081;48.614;10.226;2022-10-16T03:31:30;11.60;99.90
23801;DHT22;12081;48.614;10.226;2022-10-16T03:34:15;12.50;99.90
23801;DHT22;12081;48.614;10.226;2022-10-16T03:36:59;11.80;99.90
23801;DHT22;12081;48.614;10.226;2022-10-16T03:39:43;11.80;99.90
23801;DHT22;12081;48.614;10.226;2022-10-16T03:42:28;12.60;99.90
23801;DHT22;12081;48.614;10.226;2022-10-16T03:45:12;11.90;99.90
23801;DHT22;12081;48.614;10.226;2022-10-16T03:47:56;11.90;99.90
23801;DHT22;12081;48.614;10.226;2022-10-16T03:50:40;11.90;99.90
23801;DHT22;12081;48.614;10.226;2022-10-16T03:53:25;11.90;99.90
23801;DHT22;12081;48.614;10.226;2022-10-16T03:56:09;11.90;99.90
23801;DHT22;12081;48.614;10.226;2022-10-16T03:58:53;13.10;99.90
23801;DHT22;12081;48.614;10.226;2022-10-16T04:01:38;11.80;99.90
23801;DHT22;12081;48.614;10.226;2022-10-16T04:04:22;11.80;99.90
23801;DHT22;12081;48.614;10.226;2022-10-16T04:07:07;11.80;99.90
23801;DHT22;12081;48.614;10.226;2022-10-16T04:09:51;12.90;99.90
23801;DHT22;12081;48.614;10.226;2022-10-16T04:12:36;12.60;99.90
23801;DHT22;12081;48.614;10.226;2022-10-16T04:15:21;11.70;99.90
23801;DHT22;12081;48.614;10.226;2022-10-16T04:18:06;12.40;99.90
23801;DHT22;12081;48.614;10.226;2022-10-16T04:20:53;11.60;99.90
23801;DHT22;12081;48.614;10.226;2022-10-16T04:23:37;11.80;99.90
23801;DHT22;12081;48.614;10.226;2022-10-16T04:26:21;11.60;99.90
23801;DHT22;12081;48.614;10.226;2022-10-16T04:29:05;11.50;99.90
23801;DHT22;12081;48.614;10.226;2022-10-16T04:31:51;11.50;99.90
23801;DHT22;12081;48.614;10.226;2022-10-16T04:34:39;11.40;99.90
23801;DHT22;12081;48.614;10.226;2022-10-16T04:37:27;10.40;99.90
23801;DHT22;12081;48.614;10.226;2022-10-16T04:40:12;11.30;99.90
23801;DHT22;12081;48.614;10.226;2022-10-16T04:42:56;11.30;99.90
23801;DHT22;12081;48.614;10.226;2022-10-16T04:45:40;12.40;99.90
23801;DHT22;12081;48.614;10.226;2022-10-16T04:48:24;12.40;99.90
23801;DHT22;12081;48.614;10.226;2022-10-16T04:51:09;12.70;99.90
23801;DHT22;12081;48.614;10.226;2022-10-16T04:53:53;11.30;99.90
23801;DHT22;12081;48.614;10.226;2022-10-16T04:56:38;11.30;99.90
23801;DHT22;12081;48.614;10.226;2022-10-16T04:59:31;12.00;99.90
23801;DHT22;12081;48.614;10.226;2022-10-16T05:02:15;11.30;99.90
23801;DHT22;12081;48.614;10.226;2022-10-16T05:04:59;11.20;99.90
23801;DHT22;12081;48.614;10.226;2022-10-16T05:07:43;11.20;99.90
23801;DHT22;12081;48.614;10.226;2022-10-16T05:10:28;11.20;99.90
23801;DHT22;12081;48.614;10.226;2022-10-16T05:13:12;11.10;99.90
23801;DHT22;12081;48.614;10.226;2022-10-16T05:15:56;11.30;99.90
23801;DHT22;12081;48.614;10.226;2022-10-16T05:18:41;11.10;99.90
23801;DHT22;12081;48.614;10.226;2022-10-16T05:21:25;11.50;99.90
23801;DHT22;12081;48.614;10.226;2022-10-16T05:24:09;11.10;99.90
23801;DHT22;12081;48.614;10.226;2022-10-16T05:26:54;11.10;99.90
23801;DHT22;12081;48.614;10.226;2022-10-16T05:29:38;12.80;99.90
23801;DHT22;12081;48.614;10.226;2022-10-16T05:32:26;11.30;99.90
23801;DHT22;12081;48.614;10.226;2022-10-16T05:35:11;11.30;99.90
23801;DHT22;12081;48.614;10.226;2022-10-16T05:37:55;11.10;99.90
23801;DHT22;12081;48.614;10.226;2022-10-16T05:40:39;11.50;99.90
23801;DHT22;12081;48.614;10.226;2022-10-16T05:43:23;11.10;99.90
23801;DHT22;12081;48.614;10.226;2022-10-16T05:46:07;11.00;99.90
23801;DHT22;12081;48.614;10.226;2022-10-16T05:48:52;12.20;99.90
23801;DHT22;12081;48.614;10.226;2022-10-16T05:51:37;11.00;99.90
23801;DHT22;12081;48.614;10.226;2022-10-16T05:54:21;11.00;99.90
23801;DHT22;12081;48.614;10.226;2022-10-16T05:57:05;11.00;99.90
23801;DHT22;12081;48.614;10.226;2022-10-16T05:59:49;11.10;99.90
23801;DHT22;12081;48.614;10.226;2022-10-16T06:02:34;11.10;99.90
23801;DHT22;12081;48.614;10.226;2022-10-16T06:05:17;11.70;99.90
23801;DHT22;12081;48.614;10.226;2022-10-16T06:08:02;11.40;99.90
23801;DHT22;12081;48.614;10.226;2022-10-16T06:10:46;11.40;99.90
23801;DHT22;12081;48.614;10.226;2022-10-16T06:13:31;11.50;99.90
23801;DHT22;12081;48.614;10.226;2022-10-16T06:16:15;12.60;99.90
23801;DHT22;12081;48.614;10.226;2022-10-16T06:19:00;11.80;99.90
23801;DHT22;12081;48.614;10.226;2022-10-16T06:21:44;11.80;99.90
23801;DHT22;12081;48.614;10.226;2022-10-16T06:24:28;12.20;99.90
23801;DHT22;12081;48.614;10.226;2022-10-16T06:27:12;12.80;99.90
23801;DHT22;12081;48.614;10.226;2022-10-16T06:29:56;13.80;99.90
23801;DHT22;12081;48.614;10.226;2022-10-16T06:32:41;14.80;99.90
23801;DHT22;12081;48.614;10.226;2022-10-16T06:35:25;15.50;99.90
23801;DHT22;12081;48.614;10.226;2022-10-16T06:38:09;15.80;99.90
23801;DHT22;12081;48.614;10.226;2022-10-16T06:40:53;16.60;99.90
23801;DHT22;12081;48.614;10.226;2022-10-16T06:43:37;15.70;99.90
23801;DHT22;12081;48.614;10.226;2022-10-16T06:46:23;15.50;99.90
23801;DHT22;12081;48.614;10.226;2022-10-16T06:49:08;15.30;99.90
23801;DHT22;12081;48.614;10.226;2022-10-16T06:51:53;15.20;99.90
23801;DHT22;12081;48.614;10.226;2022-10-16T06:54:37;15.20;99.90
23801;DHT22;12081;48.614;10.226;2022-10-16T06:57:21;15.80;99.90
23801;DHT22;12081;48.614;10.226;2022-10-16T07:00:06;15.30;99.90
23801;DHT22;12081;48.614;10.226;2022-10-16T07:02:50;15.60;99.90
23801;DHT22;12081;48.614;10.226;2022-10-16T07:05:38;16.20;99.90
23801;DHT22;12081;48.614;10.226;2022-10-16T07:08:23;17.40;99.90
23801;DHT22;12081;48.614;10.226;2022-10-16T07:11:10;16.90;99.90
23801;DHT22;12081;48.614;10.226;2022-10-16T07:13:54;17.20;99.90
23801;DHT22;12081;48.614;10.226;2022-10-16T07:16:38;17.10;99.90
23801;DHT22;12081;48.614;10.226;2022-10-16T07:19:22;17.60;99.90
23801;DHT22;12081;48.614;10.226;2022-10-16T07:22:06;18.90;99.90
23801;DHT22;12081;48.614;10.226;2022-10-16T07:24:50;20.40;99.90
23801;DHT22;12081;48.614;10.226;2022-10-16T07:27:35;21.30;99.90
23801;DHT22;12081;48.614;10.226;2022-10-16T07:30:19;20.60;99.90
23801;DHT22;12081;48.614;10.226;2022-10-16T07:33:03;20.10;99.90
23801;DHT22;12081;48.614;10.226;2022-10-16T07:35:52;19.40;99.90
23801;DHT22;12081;48.614;10.226;2022-10-16T07:38:36;18.90;99.90
23801;DHT22;12081;48.614;10.226;2022-10-16T07:41:20;18.60;99.90
23801;DHT22;12081;48.614;10.226;2022-10-16T07:44:05;18.20;99.90
23801;DHT22;12081;48.614;10.226;2022-10-16T07:46:50;18.30;99.90
23801;DHT22;12081;48.614;10.226;2022-10-16T07:49:34;18.10;99.90
23801;DHT22;12081;48.614;10.226;2022-10-16T07:52:18;16.90;99.90
23801;DHT22;12081;48.614;10.226;2022-10-16T07:55:03;16.50;99.90
23801;DHT22;12081;48.614;10.226;2022-10-16T07:57:47;16.20;99.90
23801;DHT22;12081;48.614;10.226;2022-10-16T08:00:32;16.00;99.90
23801;DHT22;12081;48.614;10.226;2022-10-16T08:03:16;15.90;99.90
23801;DHT22;12081;48.614;10.226;2022-10-16T08:06:01;15.80;99.90
23801;DHT22;12081;48.614;10.226;2022-10-16T08:08:45;15.60;99.90
23801;DHT22;12081;48.614;10.226;2022-10-16T08:11:30;15.60;99.90
23801;DHT22;12081;48.614;10.226;2022-10-16T08:14:14;15.40;99.90
23801;DHT22;12081;48.614;10.226;2022-10-16T08:16:58;15.40;99.90
23801;DHT22;12081;48.614;10.226;2022-10-16T08:19:48;15.30;99.90
23801;DHT22;12081;48.614;10.226;2022-10-16T08:22:32;15.30;99.90
23801;DHT22;12081;48.614;10.226;2022-10-16T08:25:16;15.30;99.90
23801;DHT22;12081;48.614;10.226;2022-10-16T08:28:00;15.40;99.90
23801;DHT22;12081;48.614;10.226;2022-10-16T08:30:44;15.40;99.90
23801;DHT22;12081;48.614;10.226;2022-10-16T08:33:29;15.40;99.90
23801;DHT22;12081;48.614;10.226;2022-10-16T08:36:14;15.80;99.90
23801;DHT22;12081;48.614;10.226;2022-10-16T08:38:58;15.50;99.90
23801;DHT22;12081;48.614;10.226;2022-10-16T08:50:45;16.70;99.90
23801;DHT22;12081;48.614;10.226;2022-10-16T08:53:41;16.40;99.90
23801;DHT22;12081;48.614;10.226;2022-10-16T08:56:27;16.50;99.90
23801;DHT22;12081;48.614;10.226;2022-10-16T08:59:11;16.70;99.90
23801;DHT22;12081;48.614;10.226;2022-10-16T09:01:58;16.80;99.90
23801;DHT22;12081;48.614;10.226;2022-10-16T09:04:52;16.90;99.90
23801;DHT22;12081;48.614;10.226;2022-10-16T09:08:14;17.10;99.90
23801;DHT22;12081;48.614;10.226;2022-10-16T09:11:13;17.40;99.90
23801;DHT22;12081;48.614;10.226;2022-10-16T09:17:51;17.40;99.90
23801;DHT22;12081;48.614;10.226;2022-10-16T09:20:53;17.20;99.90
23801;DHT22;12081;48.614;10.226;2022-10-16T09:23:30;17.20;99.90
23801;DHT22;12081;48.614;10.226;2022-10-16T09:26:16;17.10;99.90
23801;DHT22;12081;48.614;10.226;2022-10-16T09:29:02;17.20;99.90
23801;DHT22;12081;48.614;10.226;2022-10-16T09:31:47;17.30;99.90
23801;DHT22;12081;48.614;10.226;2022-10-16T09:34:36;17.50;99.90
23801;DHT22;12081;48.614;10.226;2022-10-16T09:37:24;17.60;99.90
23801;DHT22;12081;48.614;10.226;2022-10-16T09:40:23;17.70;99.90
23801;DHT22;12081;48.614;10.226;2022-10-16T09:46:03;17.90;99.90
23801;DHT22;12081;48.614;10.226;2022-10-16T09:48:50;17.80;99.90
23801;DHT22;12081;48.614;10.226;2022-10-16T09:51:37;17.80;99.90
23801;DHT22;12081;48.614;10.226;2022-10-16T09:54:21;17.90;99.90
23801;DHT22;12081;48.614;10.226;2022-10-16T09:57:07;17.90;99.90
23801;DHT22;12081;48.614;10.226;2022-10-16T09:59:56;18.10;99.90
23801;DHT22;12081;48.614;10.226;2022-10-16T10:02:40;18.20;99.90
23801;DHT22;12081;48.614;10.226;2022-10-16T10:05:26;18.50;99.90
23801;DHT22;12081;48.614;10.226;2022-10-16T10:08:16;19.60;99.90
23801;DHT22;12081;48.614;10.226;2022-10-16T10:11:02;21.00;99.90
23801;DHT22;12081;48.614;10.226;2022-10-16T10:13:46;23.00;99.90
23801;DHT22;12081;48.614;10.226;2022-10-16T10:16:30;24.80;99.90
23801;DHT22;12081;48.614;10.226;2022-10-16T10:19:16;25.90;97.90
23801;DHT22;12081;48.614;10.226;2022-10-16T10:22:01;27.70;93.70
23801;DHT22;12081;48.614;10.226;2022-10-16T10:28:18;27.90;81.80
23801;DHT22;12081;48.614;10.226;2022-10-16T10:31:19;26.10;84.80
23801;DHT22;12081;48.614;10.226;2022-10-16T10:37:51;24.20;92.80
23801;DHT22;12081;48.614;10.226;2022-10-16T10:40:56;23.20;97.10
23801;DHT22;12081;48.614;10.226;2022-10-16T10:44:00;22.50;99.90
23801;DHT22;12081;48.614;10.226;2022-10-16T10:46:57;22.00;99.90
23801;DHT22;12081;48.614;10.226;2022-10-16T10:52:58;21.40;99.90
23801;DHT22;12081;48.614;10.226;2022-10-16T10:55:57;21.30;99.90
23801;DHT22;12081;48.614;10.226;2022-10-16T10:59:12;21.20;99.90
23801;DHT22;12081;48.614;10.226;2022-10-16T11:02:21;21.20;99.90
23801;DHT22;12081;48.614;10.226;2022-10-16T11:08:17;21.00;99.90
23801;DHT22;12081;48.614;10.226;2022-10-16T11:11:08;21.10;99.90
23801;DHT22;12081;48.614;10.226;2022-10-16T11:13:58;21.10;99.90
23801;DHT22;12081;48.614;10.226;2022-10-16T11:19:50;21.00;99.90
23801;DHT22;12081;48.614;10.226;2022-10-16T11:22:47;20.90;99.90
23801;DHT22;12081;48.614;10.226;2022-10-16T11:25:33;20.80;99.90
23801;DHT22;12081;48.614;10.226;2022-10-16T11:28:23;20.70;99.90
23801;DHT22;12081;48.614;10.226;2022-10-16T11:31:32;20.70;99.90
23801;DHT22;12081;48.614;10.226;2022-10-16T11:34:34;20.90;99.90
23801;DHT22;12081;48.614;10.226;2022-10-16T11:37:33;21.50;99.90
23801;DHT22;12081;48.614;10.226;2022-10-16T11:40:29;21.90;99.90
23801;DHT22;12081;48.614;10.226;2022-10-16T11:43:21;22.60;99.90
23801;DHT22;12081;48.614;10.226;2022-10-16T11:46:13;24.10;99.90
23801;DHT22;12081;48.614;10.226;2022-10-16T11:49:09;25.60;98.70
23801;DHT22;12081;48.614;10.226;2022-10-16T11:54:49;28.20;86.20
23801;DHT22;12081;48.614;10.226;2022-10-16T11:57:40;29.20;77.00
23801;DHT22;12081;48.614;10.226;2022-10-16T12:00:52;29.80;71.00
23801;DHT22;12081;48.614;10.226;2022-10-16T12:03:45;30.30;67.50
23801;DHT22;12081;48.614;10.226;2022-10-16T12:09:39;31.40;60.50
23801;DHT22;12081;48.614;10.226;2022-10-16T12:12:25;32.00;59.80
23801;DHT22;12081;48.614;10.226;2022-10-16T12:15:27;32.60;56.40
23801;DHT22;12081;48.614;10.226;2022-10-16T12:18:22;33.10;54.60
23801;DHT22;12081;48.614;10.226;2022-10-16T12:21:08;33.40;53.40
23801;DHT22;12081;48.614;10.226;2022-10-16T12:24:02;34.00;52.30
23801;DHT22;12081;48.614;10.226;2022-10-16T12:26:48;33.50;51.70
23801;DHT22;12081;48.614;10.226;2022-10-16T12:29:40;32.90;52.90
23801;DHT22;12081;48.614;10.226;2022-10-16T12:35:20;32.40;52.90
23801;DHT22;12081;48.614;10.226;2022-10-16T12:38:19;32.50;54.30
23801;DHT22;12081;48.614;10.226;2022-10-16T12:41:06;32.30;52.30
23801;DHT22;12081;48.614;10.226;2022-10-16T12:43:52;32.00;52.50
23801;DHT22;12081;48.614;10.226;2022-10-16T12:46:40;31.80;54.20
23801;DHT22;12081;48.614;10.226;2022-10-16T12:49:37;31.50;53.80
23801;DHT22;12081;48.614;10.226;2022-10-16T12:55:19;31.10;55.00
23801;DHT22;12081;48.614;10.226;2022-10-16T13:01:42;31.60;54.90
23801;DHT22;12081;48.614;10.226;2022-10-16T13:25:47;31.60;52.20
23801;DHT22;12081;48.614;10.226;2022-10-16T13:28:38;31.40;53.70
23801;DHT22;12081;48.614;10.226;2022-10-16T13:31:24;31.30;53.10
23801;DHT22;12081;48.614;10.226;2022-10-16T13:34:18;31.40;53.50
23801;DHT22;12081;48.614;10.226;2022-10-16T13:37:15;31.20;54.00
23801;DHT22;12081;48.614;10.226;2022-10-16T13:40:19;30.40;55.20
23801;DHT22;12081;48.614;10.226;2022-10-16T13:43:04;29.70;56.70
23801;DHT22;12081;48.614;10.226;2022-10-16T13:46:05;29.60;58.00
23801;DHT22;12081;48.614;10.226;2022-10-16T13:49:01;29.50;56.40
23801;DHT22;12081;48.614;10.226;2022-10-16T13:51:57;29.30;57.70
23801;DHT22;12081;48.614;10.226;2022-10-16T13:54:41;29.00;57.70
23801;DHT22;12081;48.614;10.226;2022-10-16T13:57:26;28.50;58.40
23801;DHT22;12081;48.614;10.226;2022-10-16T14:03:13;28.10;60.40
23801;DHT22;12081;48.614;10.226;2022-10-16T14:06:03;27.80;59.70
23801;DHT22;12081;48.614;10.226;2022-10-16T14:09:02;27.50;62.10
23801;DHT22;12081;48.614;10.226;2022-10-16T14:11:54;27.40;64.00
23801;DHT22;12081;48.614;10.226;2022-10-16T14:14:47;27.30;64.30
23801;DHT22;12081;48.614;10.226;2022-10-16T14:17:34;27.20;64.80
23801;DHT22;12081;48.614;10.226;2022-10-16T14:20:19;27.00;65.00
23801;DHT22;12081;48.614;10.226;2022-10-16T14:29:29;27.00;65.10
23801;DHT22;12081;48.614;10.226;2022-10-16T14:32:26;27.10;64.60
23801;DHT22;12081;48.614;10.226;2022-10-16T14:35:25;27.30;64.30
23801;DHT22;12081;48.614;10.226;2022-10-16T14:38:18;27.50;63.10
23801;DHT22;12081;48.614;10.226;2022-10-16T14:41:05;27.70;63.10
23801;DHT22;12081;48.614;10.226;2022-10-16T14:43:52;27.90;61.30
23801;DHT22;12081;48.614;10.226;2022-10-16T14:46:38;27.80;60.00
23801;DHT22;12081;48.614;10.226;2022-10-16T14:49:23;27.80;61.50
23801;DHT22;12081;48.614;10.226;2022-10-16T14:52:10;27.70;60.10
23801;DHT22;12081;48.614;10.226;2022-10-16T14:54:56;27.50;61.90
23801;DHT22;12081;48.614;10.226;2022-10-16T14:57:40;27.30;63.40
23801;DHT22;12081;48.614;10.226;2022-10-16T15:00:24;27.00;62.20
23801;DHT22;12081;48.614;10.226;2022-10-16T15:03:08;26.60;64.40
23801;DHT22;12081;48.614;10.226;2022-10-16T15:05:52;26.20;66.50
23801;DHT22;12081;48.614;10.226;2022-10-16T15:08:37;25.70;67.80
23801;DHT22;12081;48.614;10.226;2022-10-16T15:11:21;25.30;70.10
23801;DHT22;12081;48.614;10.226;2022-10-16T15:14:05;24.80;72.40
23801;DHT22;12081;48.614;10.226;2022-10-16T15:16:49;24.40;75.20
23801;DHT22;12081;48.614;10.226;2022-10-16T15:19:33;24.00;77.80
23801;DHT22;12081;48.614;10.226;2022-10-16T15:22:17;23.60;80.00
23801;DHT22;12081;48.614;10.226;2022-10-16T15:25:52;23.20;83.70
23801;DHT22;12081;48.614;10.226;2022-10-16T15:28:19;23.00;89.20
23801;DHT22;12081;48.614;10.226;2022-10-16T15:31:04;22.70;93.20
23801;DHT22;12081;48.614;10.226;2022-10-16T15:33:53;22.50;97.20
23801;DHT22;12081;48.614;10.226;2022-10-16T15:36:40;22.40;99.60
23801;DHT22;12081;48.614;10.226;2022-10-16T15:39:24;22.20;99.90
23801;DHT22;12081;48.614;10.226;2022-10-16T15:42:08;22.00;99.90
23801;DHT22;12081;48.614;10.226;2022-10-16T15:44:53;21.90;99.90
23801;DHT22;12081;48.614;10.226;2022-10-16T15:47:37;21.70;99.90
23801;DHT22;12081;48.614;10.226;2022-10-16T15:50:22;21.60;99.90
23801;DHT22;12081;48.614;10.226;2022-10-16T15:53:06;21.40;99.90
23801;DHT22;12081;48.614;10.226;2022-10-16T15:55:50;21.30;99.90
23801;DHT22;12081;48.614;10.226;2022-10-16T15:58:34;21.10;99.90
23801;DHT22;12081;48.614;10.226;2022-10-16T16:01:18;21.00;99.90
23801;DHT22;12081;48.614;10.226;2022-10-16T16:04:03;20.80;99.90
23801;DHT22;12081;48.614;10.226;2022-10-16T16:06:48;20.70;99.90
23801;DHT22;12081;48.614;10.226;2022-10-16T16:09:33;20.60;99.90
23801;DHT22;12081;48.614;10.226;2022-10-16T16:12:18;20.40;99.90
23801;DHT22;12081;48.614;10.226;2022-10-16T16:15:04;20.30;99.90
23801;DHT22;12081;48.614;10.226;2022-10-16T16:17:49;20.20;99.90
23801;DHT22;12081;48.614;10.226;2022-10-16T16:20:33;20.00;99.90
23801;DHT22;12081;48.614;10.226;2022-10-16T16:23:17;19.90;99.90
23801;DHT22;12081;48.614;10.226;2022-10-16T16:26:23;20.00;99.90
23801;DHT22;12081;48.614;10.226;2022-10-16T16:29:12;19.60;99.90
23801;DHT22;12081;48.614;10.226;2022-10-16T16:31:57;19.50;99.90
23801;DHT22;12081;48.614;10.226;2022-10-16T16:34:43;20.10;99.90
23801;DHT22;12081;48.614;10.226;2022-10-16T16:37:27;19.40;99.90
23801;DHT22;12081;48.614;10.226;2022-10-16T16:40:11;19.30;99.90
23801;DHT22;12081;48.614;10.226;2022-10-16T16:42:55;19.30;99.90
23801;DHT22;12081;48.614;10.226;2022-10-16T16:45:40;19.20;99.90
23801;DHT22;12081;48.614;10.226;2022-10-16T16:48:24;19.10;99.90
23801;DHT22;12081;48.614;10.226;2022-10-16T16:51:13;19.00;99.90
23801;DHT22;12081;48.614;10.226;2022-10-16T16:53:59;18.90;99.90
23801;DHT22;12081;48.614;10.226;2022-10-16T16:56:43;18.80;99.90
23801;DHT22;12081;48.614;10.226;2022-10-16T16:59:28;18.60;99.90
23801;DHT22;12081;48.614;10.226;2022-10-16T17:02:12;20.20;99.90
23801;DHT22;12081;48.614;10.226;2022-10-16T17:04:56;18.50;99.90
23801;DHT22;12081;48.614;10.226;2022-10-16T17:07:41;18.50;99.90
23801;DHT22;12081;48.614;10.226;2022-10-16T17:10:25;18.40;99.90
23801;DHT22;12081;48.614;10.226;2022-10-16T17:13:09;18.30;99.90
23801;DHT22;12081;48.614;10.226;2022-10-16T17:15:53;18.30;99.90
23801;DHT22;12081;48.614;10.226;2022-10-16T17:18:38;20.20;99.90
23801;DHT22;12081;48.614;10.226;2022-10-16T17:21:23;18.20;99.90
23801;DHT22;12081;48.614;10.226;2022-10-16T17:24:07;18.10;99.90
23801;DHT22;12081;48.614;10.226;2022-10-16T17:26:51;18.00;99.90
23801;DHT22;12081;48.614;10.226;2022-10-16T17:29:35;17.90;99.90
23801;DHT22;12081;48.614;10.226;2022-10-16T17:32:20;17.80;99.90
23801;DHT22;12081;48.614;10.226;2022-10-16T17:35:05;19.00;99.90
23801;DHT22;12081;48.614;10.226;2022-10-16T17:37:51;17.70;99.90
23801;DHT22;12081;48.614;10.226;2022-10-16T17:40:35;17.70;99.90
23801;DHT22;12081;48.614;10.226;2022-10-16T17:43:19;17.60;99.90
23801;DHT22;12081;48.614;10.226;2022-10-16T17:46:04;17.50;99.90
23801;DHT22;12081;48.614;10.226;2022-10-16T17:48:51;17.40;99.90
23801;DHT22;12081;48.614;10.226;2022-10-16T17:51:38;18.90;99.90
23801;DHT22;12081;48.614;10.226;2022-10-16T17:54:22;18.20;99.90
23801;DHT22;12081;48.614;10.226;2022-10-16T17:57:07;17.10;99.90
23801;DHT22;12081;48.614;10.226;2022-10-16T17:59:52;17.10;99.90
23801;DHT22;12081;48.614;10.226;2022-10-16T18:02:37;18.30;99.90
23801;DHT22;12081;48.614;10.226;2022-10-16T18:05:25;18.10;99.90
23801;DHT22;12081;48.614;10.226;2022-10-16T18:08:09;16.80;99.90
23801;DHT22;12081;48.614;10.226;2022-10-16T18:10:53;16.70;99.90
23801;DHT22;12081;48.614;10.226;2022-10-16T18:13:38;16.60;99.90
23801;DHT22;12081;48.614;10.226;2022-10-16T18:16:23;16.40;99.90
23801;DHT22;12081;48.614;10.226;2022-10-16T18:19:10;18.50;99.90
23801;DHT22;12081;48.614;10.226;2022-10-16T18:21:54;16.50;99.90
23801;DHT22;12081;48.614;10.226;2022-10-16T18:24:39;16.20;99.90
23801;DHT22;12081;48.614;10.226;2022-10-16T18:27:25;16.10;99.90
23801;DHT22;12081;48.614;10.226;2022-10-16T18:30:09;16.20;99.90
23801;DHT22;12081;48.614;10.226;2022-10-16T18:32:53;16.00;99.90
23801;DHT22;12081;48.614;10.226;2022-10-16T18:35:37;16.00;99.90
23801;DHT22;12081;48.614;10.226;2022-10-16T18:38:23;17.40;99.90
23801;DHT22;12081;48.614;10.226;2022-10-16T18:41:08;15.90;99.90
23801;DHT22;12081;48.614;10.226;2022-10-16T18:43:52;16.20;99.90
23801;DHT22;12081;48.614;10.226;2022-10-16T18:46:37;16.00;99.90
23801;DHT22;12081;48.614;10.226;2022-10-16T18:49:23;15.90;99.90
23801;DHT22;12081;48.614;10.226;2022-10-16T18:52:10;15.80;99.90
23801;DHT22;12081;48.614;10.226;2022-10-16T18:54:57;15.70;99.90
23801;DHT22;12081;48.614;10.226;2022-10-16T18:57:41;15.60;99.90
23801;DHT22;12081;48.614;10.226;2022-10-16T19:00:28;15.40;99.90
23801;DHT22;12081;48.614;10.226;2022-10-16T19:03:12;15.40;99.90
23801;DHT22;12081;48.614;10.226;2022-10-16T19:06:08;15.40;99.90
23801;DHT22;12081;48.614;10.226;2022-10-16T19:08:53;15.30;99.90